Time;durP1;ratioP1;P1;durP2;ratioP2;P2;SDS_P1;SDS_P2;PMS_P1;PMS_P2;Temp;Humidity;BMP_temperature;BMP_pressure;BME280_temperature;BME280_humidity;BME280_pressure;Samples;Min_cycle;Max_cycle;Signal;HPM_P1;HPM_P2
2023/08/03 00:00:16;;;;;;;13.98;3.38;;;17.50;99.90;;;;;;4993272;28;20033;-85
2023/08/03 00:02:42;;;;;;;18.25;3.42;;;17.50;99.90;;;;;;4992298;28;20466;-85
2023/08/03 00:05:08;;;;;;;8.75;2.92;;;17.50;99.90;;;;;;4992146;28;20033;-85
2023/08/03 00:07:33;;;;;;;8.30;2.47;;;17.50;99.90;;;;;;4992696;28;20530;-84
2023/08/03 00:10:00;;;;;;;11.02;3.58;;;17.40;99.90;;;;;;4992567;28;20157;-85
2023/08/03 00:12:26;;;;;;;10.25;3.03;;;17.40;99.90;;;;;;4993071;28;20022;-82
2023/08/03 00:14:52;;;;;;;9.32;3.35;;;17.30;99.90;;;;;;4991910;28;20475;-83
2023/08/03 00:17:18;;;;;;;12.30;2.10;;;17.30;99.90;;;;;;4992897;28;20033;-84
2023/08/03 00:19:43;;;;;;;4.60;1.13;;;17.30;99.90;;;;;;4992563;28;20122;-83
2023/08/03 00:22:09;;;;;;;8.00;1.23;;;17.10;99.90;;;;;;4992658;28;20018;-84
2023/08/03 00:24:35;;;;;;;4.43;1.20;;;17.10;99.90;;;;;;4992623;28;20026;-84
2023/08/03 00:27:01;;;;;;;4.22;1.60;;;17.00;99.90;;;;;;4992612;28;20492;-84
2023/08/03 00:29:26;;;;;;;8.02;1.77;;;17.00;99.90;;;;;;4992250;28;20106;-84
2023/08/03 00:31:52;;;;;;;6.60;1.65;;;17.40;99.90;;;;;;4992397;28;20529;-84
2023/08/03 00:34:17;;;;;;;4.30;1.52;;;17.30;99.90;;;;;;4993603;28;20459;-84
2023/08/03 00:36:43;;;;;;;6.78;2.53;;;17.10;99.90;;;;;;4991779;28;20053;-85
2023/08/03 00:39:09;;;;;;;9.25;1.83;;;17.10;99.90;;;;;;4992759;28;20034;-84
2023/08/03 00:41:34;;;;;;;9.55;2.00;;;17.10;99.90;;;;;;4992556;28;20014;-84
2023/08/03 00:44:00;;;;;;;11.65;1.90;;;18.10;99.90;;;;;;4991982;28;20038;-85
2023/08/03 00:46:26;;;;;;;7.32;2.22;;;17.20;99.90;;;;;;4992518;28;20105;-84
2023/08/03 00:48:51;;;;;;;10.10;2.35;;;17.20;99.90;;;;;;4992300;28;20023;-85
2023/08/03 00:51:17;;;;;;;12.93;3.17;;;17.30;99.90;;;;;;4991915;28;20030;-84
2023/08/03 00:53:46;;;;;;;7.72;2.53;;;17.30;99.90;;;;;;4992592;28;20029;-84
2023/08/03 00:56:14;;;;;;;8.13;3.00;;;17.30;99.90;;;;;;4992538;28;20069;-84
2023/08/03 00:58:40;;;;;;;5.88;2.40;;;17.30;99.90;;;;;;4991253;28;20050;-83
2023/08/03 01:01:06;;;;;;;12.85;3.05;;;17.30;99.90;;;;;;4992469;28;20105;-84
2023/08/03 01:03:32;;;;;;;7.05;2.85;;;17.30;99.90;;;;;;4992235;28;20118;-84
2023/08/03 01:05:58;;;;;;;7.85;2.97;;;17.30;99.90;;;;;;4991972;28;20026;-84
2023/08/03 01:08:24;;;;;;;7.78;2.63;;;17.40;99.90;;;;;;4992450;28;20363;-84
2023/08/03 01:10:50;;;;;;;9.63;2.53;;;17.40;99.90;;;;;;4992404;28;20033;-84
2023/08/03 01:13:16;;;;;;;6.53;3.10;;;17.40;99.90;;;;;;4991791;28;20650;-84
2023/08/03 01:15:41;;;;;;;5.63;2.50;;;17.40;99.90;;;;;;4992753;28;20034;-84
2023/08/03 01:18:07;;;;;;;11.60;3.45;;;17.40;99.90;;;;;;4995246;28;20034;-84
2023/08/03 01:20:36;;;;;;;12.13;3.08;;;17.40;99.90;;;;;;4995686;28;20041;-84
2023/08/03 01:23:04;;;;;;;8.60;2.38;;;17.30;99.90;;;;;;4995924;28;20076;-84
2023/08/03 01:25:32;;;;;;;11.15;3.72;;;17.40;99.90;;;;;;4994696;28;20033;-84
2023/08/03 01:27:57;;;;;;;11.65;3.55;;;17.40;99.90;;;;;;4995417;28;20509;-84
2023/08/03 01:30:23;;;;;;;15.60;3.88;;;17.40;99.90;;;;;;4995713;28;20025;-84
2023/08/03 01:32:49;;;;;;;16.58;3.60;;;18.10;99.90;;;;;;4994599;28;20041;-84
2023/08/03 01:35:15;;;;;;;6.50;2.92;;;17.40;99.90;;;;;;4995890;28;20050;-84
2023/08/03 01:37:42;;;;;;;4.80;2.15;;;17.50;99.90;;;;;;4995597;28;20053;-84
2023/08/03 01:40:10;;;;;;;10.68;2.28;;;17.50;99.90;;;;;;4994992;28;20030;-84
2023/08/03 01:42:36;;;;;;;11.55;2.75;;;17.50;99.90;;;;;;4995874;28;20022;-84
2023/08/03 01:45:03;;;;;;;7.63;2.83;;;17.50;99.90;;;;;;4995588;28;20050;-84
2023/08/03 01:47:29;;;;;;;9.30;2.30;;;17.50;99.90;;;;;;4996609;28;20019;-82
2023/08/03 01:49:54;;;;;;;11.70;2.50;;;17.50;99.90;;;;;;5008647;28;20081;-84
2023/08/03 01:52:20;;;;;;;11.90;3.00;;;17.50;99.90;;;;;;5009373;28;20030;-83
2023/08/03 01:54:45;;;;;;;13.30;3.60;;;18.00;99.90;;;;;;4986429;28;20479;-84
2023/08/03 01:57:11;;;;;;;10.07;2.58;;;17.50;99.90;;;;;;4975920;28;20110;-84
2023/08/03 01:59:36;;;;;;;8.10;2.53;;;17.80;99.90;;;;;;4974793;28;20034;-84
2023/08/03 02:02:02;;;;;;;4.97;2.60;;;17.60;99.90;;;;;;4975195;28;20029;-84
2023/08/03 02:04:27;;;;;;;4.78;2.20;;;17.50;99.90;;;;;;4975709;28;20463;-84
2023/08/03 02:06:56;;;;;;;5.20;2.63;;;17.50;99.90;;;;;;4975495;28;20023;-84
2023/08/03 02:09:22;;;;;;;5.82;1.92;;;17.50;99.90;;;;;;4974907;28;20051;-84
2023/08/03 02:11:48;;;;;;;5.13;2.05;;;17.50;99.90;;;;;;4975310;28;20027;-84
2023/08/03 02:14:13;;;;;;;3.33;1.83;;;17.50;99.90;;;;;;4975460;28;20494;-84
2023/08/03 02:16:39;;;;;;;10.43;2.88;;;17.50;99.90;;;;;;4974748;28;20086;-84
2023/08/03 02:19:04;;;;;;;6.55;1.85;;;17.50;99.90;;;;;;4975857;28;20030;-84
2023/08/03 02:21:30;;;;;;;3.58;2.00;;;17.40;99.90;;;;;;4974488;28;20023;-84
2023/08/03 02:23:55;;;;;;;7.25;2.55;;;17.40;99.90;;;;;;4975404;28;20038;-83
2023/08/03 02:26:21;;;;;;;6.97;2.08;;;17.40;99.90;;;;;;4975272;28;20031;-84
2023/08/03 02:28:47;;;;;;;6.32;2.45;;;17.30;99.90;;;;;;4973669;28;20023;-84
2023/08/03 02:31:12;;;;;;;7.88;2.50;;;17.80;99.90;;;;;;4975593;28;20027;-84
2023/08/03 02:33:38;;;;;;;6.05;2.47;;;17.30;99.90;;;;;;4974867;28;20368;-84
2023/08/03 02:36:03;;;;;;;4.65;2.25;;;17.40;99.90;;;;;;4974457;28;20058;-84
2023/08/03 02:38:29;;;;;;;3.50;1.88;;;17.40;99.90;;;;;;4974824;28;20026;-84
2023/08/03 02:40:57;;;;;;;4.68;2.20;;;17.40;99.90;;;;;;4974919;28;20105;-84
2023/08/03 02:43:23;;;;;;;3.55;1.63;;;17.40;99.90;;;;;;4977592;28;20100;-84
2023/08/03 02:45:49;;;;;;;3.17;1.27;;;17.40;99.90;;;;;;4994423;28;20022;-84
2023/08/03 02:48:14;;;;;;;4.07;1.25;;;17.30;99.90;;;;;;4994534;28;20489;-84
2023/08/03 02:50:40;;;;;;;6.55;1.65;;;17.90;99.90;;;;;;4993385;28;20104;-84
2023/08/03 02:53:05;;;;;;;4.05;1.75;;;17.30;99.90;;;;;;4994235;28;20423;-84
2023/08/03 02:55:31;;;;;;;3.15;1.42;;;17.30;99.90;;;;;;4993755;28;20121;-84
2023/08/03 02:57:56;;;;;;;5.20;1.40;;;17.40;99.90;;;;;;4993317;28;20033;-84
2023/08/03 03:00:22;;;;;;;7.47;1.73;;;17.40;99.90;;;;;;4994120;28;20038;-84
2023/08/03 03:02:48;;;;;;;5.43;1.55;;;17.40;99.90;;;;;;4994242;28;20027;-84
2023/08/03 03:05:14;;;;;;;8.02;1.90;;;17.30;99.90;;;;;;4993290;28;20045;-84
2023/08/03 03:07:39;;;;;;;6.78;1.65;;;18.20;99.90;;;;;;4994037;28;20034;-84
2023/08/03 03:10:05;;;;;;;5.45;1.73;;;17.30;99.90;;;;;;4999434;28;20026;-84
2023/08/03 03:12:30;;;;;;;7.30;1.75;;;17.20;99.90;;;;;;4999429;28;20527;-84
2023/08/03 03:14:56;;;;;;;8.40;2.15;;;17.20;99.90;;;;;;4993567;28;20060;-83
2023/08/03 03:17:22;;;;;;;5.72;2.45;;;17.20;99.90;;;;;;4994057;28;20022;-84
2023/08/03 03:19:47;;;;;;;7.00;2.15;;;17.10;99.90;;;;;;4992820;28;20168;-84
2023/08/03 03:22:13;;;;;;;7.88;2.40;;;17.10;99.90;;;;;;4993748;28;20022;-83
2023/08/03 03:24:38;;;;;;;12.45;2.40;;;17.10;99.90;;;;;;4992702;28;20038;-83
2023/08/03 03:27:04;;;;;;;8.13;2.63;;;17.10;99.90;;;;;;4993182;28;20029;-83
2023/08/03 03:29:30;;;;;;;7.13;2.05;;;17.10;99.90;;;;;;4992514;28;20022;-83
2023/08/03 03:31:55;;;;;;;7.28;2.97;;;17.10;99.90;;;;;;4992045;28;20022;-83
2023/08/03 03:34:21;;;;;;;4.13;1.83;;;17.20;99.90;;;;;;4993321;28;20046;-84
2023/08/03 03:36:46;;;;;;;9.00;3.58;;;17.10;99.90;;;;;;4993199;28;20023;-83
2023/08/03 03:39:12;;;;;;;9.85;2.70;;;17.10;99.90;;;;;;4992772;28;20022;-84
2023/08/03 03:41:38;;;;;;;9.02;2.47;;;17.10;99.90;;;;;;4992887;28;20423;-84
2023/08/03 03:44:03;;;;;;;14.80;2.90;;;17.10;99.90;;;;;;4992784;28;20054;-84
2023/08/03 03:46:29;;;;;;;14.40;2.83;;;17.10;99.90;;;;;;4992361;28;20038;-84
2023/08/03 03:48:55;;;;;;;7.63;2.83;;;17.10;99.90;;;;;;4993264;28;20038;-84
2023/08/03 03:51:21;;;;;;;9.05;2.60;;;17.10;99.90;;;;;;4992687;28;20402;-84
2023/08/03 03:53:47;;;;;;;8.40;3.20;;;17.00;99.90;;;;;;4992112;28;20046;-84
2023/08/03 03:56:12;;;;;;;9.20;2.70;;;17.10;99.90;;;;;;4992901;28;20030;-84
2023/08/03 03:58:38;;;;;;;11.73;2.60;;;17.10;99.90;;;;;;4992879;28;20062;-84
2023/08/03 04:01:03;;;;;;;7.82;2.70;;;17.10;99.90;;;;;;4992298;28;20023;-84
2023/08/03 04:03:29;;;;;;;11.15;2.97;;;17.10;99.90;;;;;;4993043;28;20026;-84
2023/08/03 04:05:55;;;;;;;6.97;2.45;;;17.10;99.90;;;;;;4993126;28;20050;-84
2023/08/03 04:08:20;;;;;;;9.55;1.77;;;17.10;99.90;;;;;;4992259;28;20026;-84
2023/08/03 04:10:46;;;;;;;8.52;1.85;;;17.00;99.90;;;;;;4992703;28;20109;-84
2023/08/03 04:13:11;;;;;;;7.38;1.63;;;17.00;99.90;;;;;;4992665;28;20364;-83
2023/08/03 04:15:38;;;;;;;9.00;1.55;;;17.00;99.90;;;;;;4974689;28;20082;-84
2023/08/03 04:18:03;;;;;;;9.15;2.33;;;17.10;99.90;;;;;;4993007;28;20053;-84
2023/08/03 04:20:29;;;;;;;13.63;1.95;;;17.00;99.90;;;;;;4992661;28;20410;-84
2023/08/03 04:22:54;;;;;;;5.38;2.00;;;17.00;99.90;;;;;;4992070;28;20485;-84
2023/08/03 04:25:20;;;;;;;5.38;1.80;;;17.00;99.90;;;;;;4992892;28;20022;-84
2023/08/03 04:27:46;;;;;;;5.03;1.70;;;17.00;99.90;;;;;;4992594;28;20019;-84
2023/08/03 04:30:13;;;;;;;8.68;2.22;;;17.00;99.90;;;;;;4990758;28;20117;-83
2023/08/03 04:32:39;;;;;;;6.53;1.58;;;17.10;99.90;;;;;;4992412;28;20022;-83
2023/08/03 04:35:05;;;;;;;15.50;2.90;;;17.00;99.90;;;;;;4993845;28;20451;-84
2023/08/03 04:37:31;;;;;;;8.13;2.42;;;17.00;99.90;;;;;;4973375;28;20034;-84
2023/08/03 04:39:56;;;;;;;15.90;3.28;;;17.00;99.90;;;;;;4973187;28;20027;-84
2023/08/03 04:42:22;;;;;;;11.07;3.17;;;17.00;99.90;;;;;;4972999;28;20481;-83
2023/08/03 04:44:49;;;;;;;18.98;3.42;;;17.00;99.90;;;;;;4972885;28;20061;-84
2023/08/03 04:47:15;;;;;;;15.40;2.88;;;16.90;99.90;;;;;;4973259;28;20533;-83
2023/08/03 04:49:41;;;;;;;9.57;2.42;;;16.90;99.90;;;;;;4983164;28;20541;-84
2023/08/03 04:52:07;;;;;;;19.13;3.67;;;16.90;99.90;;;;;;4994896;28;20018;-84
2023/08/03 04:54:32;;;;;;;16.73;3.80;;;17.00;99.90;;;;;;4994054;28;20050;-83
2023/08/03 04:56:58;;;;;;;15.90;4.15;;;17.00;99.90;;;;;;4996096;28;20102;-84
2023/08/03 04:59:23;;;;;;;10.10;3.20;;;17.00;99.90;;;;;;4996487;28;20034;-83
2023/08/03 05:01:49;;;;;;;13.77;3.25;;;17.00;99.90;;;;;;4996029;28;20026;-83
2023/08/03 05:04:14;;;;;;;15.75;4.07;;;16.80;99.90;;;;;;4995943;28;20053;-84
2023/08/03 05:06:40;;;;;;;13.07;3.45;;;17.00;99.90;;;;;;4996044;28;20031;-84
2023/08/03 05:09:06;;;;;;;10.38;3.22;;;17.00;99.90;;;;;;4996308;28;20029;-84
2023/08/03 05:11:31;;;;;;;15.20;3.55;;;16.90;99.90;;;;;;4995197;28;20482;-84
2023/08/03 05:13:57;;;;;;;12.55;3.38;;;16.90;99.90;;;;;;4996151;28;20039;-84
2023/08/03 05:16:24;;;;;;;10.95;3.65;;;16.80;99.90;;;;;;4996187;28;20100;-84
2023/08/03 05:18:50;;;;;;;14.27;3.65;;;16.80;99.90;;;;;;4994941;28;20493;-84
2023/08/03 05:21:16;;;;;;;10.38;3.22;;;16.80;99.90;;;;;;4995761;28;20036;-84
2023/08/03 05:23:42;;;;;;;9.48;2.80;;;16.70;99.90;;;;;;4995002;28;20030;-84
2023/08/03 05:26:08;;;;;;;11.23;2.55;;;16.70;99.90;;;;;;4986109;28;20065;-85
2023/08/03 05:28:33;;;;;;;10.70;3.08;;;16.70;99.90;;;;;;4994998;28;20050;-85
2023/08/03 05:30:59;;;;;;;17.75;3.67;;;17.40;99.90;;;;;;4994542;28;20061;-85
2023/08/03 05:33:26;;;;;;;12.02;3.03;;;16.70;99.90;;;;;;4994380;28;20030;-85
2023/08/03 05:35:52;;;;;;;10.15;3.40;;;16.70;99.90;;;;;;4995114;28;20053;-85
2023/08/03 05:38:18;;;;;;;13.05;3.15;;;16.70;99.90;;;;;;4994365;28;20097;-84
2023/08/03 05:40:43;;;;;;;16.45;3.85;;;16.70;99.90;;;;;;4993585;28;20030;-85
2023/08/03 05:43:10;;;;;;;10.45;2.80;;;16.70;99.90;;;;;;4995178;28;20371;-85
2023/08/03 05:45:48;;;;;;;9.45;2.67;;;16.70;99.90;;;;;;4994112;28;20039;-85
2023/08/03 05:48:18;;;;;;;9.43;2.70;;;16.70;99.90;;;;;;4992738;28;20081;-85
2023/08/03 05:50:48;;;;;;;11.10;3.05;;;16.70;99.90;;;;;;4994980;28;20023;-85
2023/08/03 05:53:14;;;;;;;;;;;17.30;99.90;;;;;;4995053;28;20435;-85
2023/08/03 05:55:41;;;;;;;7.38;1.98;;;17.60;99.90;;;;;;4996063;28;19914;-85
2023/08/03 05:58:13;;;;;;;7.55;2.03;;;16.80;99.90;;;;;;5000537;28;20106;-85
2023/08/03 06:00:47;;;;;;;13.95;2.47;;;16.80;99.90;;;;;;4994529;28;20022;-85
2023/08/03 06:03:14;;;;;;;14.32;3.22;;;16.70;99.90;;;;;;4991292;28;20022;-85
2023/08/03 06:05:46;;;;;;;13.32;2.40;;;16.70;99.90;;;;;;4994045;28;20037;-85
2023/08/03 06:08:26;;;;;;;14.13;2.25;;;16.70;99.90;;;;;;4991826;28;20109;-85
2023/08/03 06:10:54;;;;;;;7.00;2.25;;;16.70;99.90;;;;;;4989788;28;20022;-86
2023/08/03 06:13:26;;;;;;;9.20;2.13;;;16.70;99.90;;;;;;4994593;28;20022;-85
2023/08/03 06:15:52;;;;;;;9.25;2.35;;;16.70;99.90;;;;;;4991869;28;20034;-85
2023/08/03 06:18:19;;;;;;;7.55;1.88;;;16.70;99.90;;;;;;4994840;28;20389;-85
2023/08/03 06:20:46;;;;;;;9.00;2.05;;;16.70;99.90;;;;;;4993726;28;20089;-84
2023/08/03 06:23:20;;;;;;;10.90;1.95;;;16.70;99.90;;;;;;4994745;28;20015;-84
2023/08/03 06:25:47;;;;;;;13.00;3.45;;;16.70;99.90;;;;;;4993839;28;20022;-84
2023/08/03 06:28:15;;;;;;;8.88;2.47;;;16.80;99.90;;;;;;4993564;28;20470;-85
2023/08/03 06:30:41;;;;;;;12.93;2.30;;;16.80;99.90;;;;;;4993957;28;20033;-85
2023/08/03 06:33:10;;;;;;;14.55;3.17;;;16.80;99.90;;;;;;4994293;28;20022;-85
2023/08/03 06:35:41;;;;;;;12.45;2.80;;;16.70;99.90;;;;;;4993735;28;20089;-85
2023/08/03 06:38:12;;;;;;;;;;;16.80;99.90;;;;;;4992406;28;20045;-85
2023/08/03 06:40:40;;;;;;;;;;;16.70;99.90;;;;;;4994166;28;20303;-85
2023/08/03 06:43:06;;;;;;;17.10;4.00;;;16.80;99.90;;;;;;4994042;28;19916;-84
2023/08/03 06:45:32;;;;;;;24.67;4.18;;;16.80;99.90;;;;;;4992929;28;20050;-83
2023/08/03 06:47:59;;;;;;;17.25;4.03;;;16.80;99.90;;;;;;4993862;28;20031;-84
2023/08/03 06:50:26;;;;;;;20.38;4.55;;;16.80;99.90;;;;;;4992728;28;20026;-85
2023/08/03 06:52:52;;;;;;;13.70;3.83;;;16.90;99.90;;;;;;4993328;28;20022;-83
2023/08/03 06:55:18;;;;;;;17.13;3.70;;;16.90;99.90;;;;;;4992317;28;20092;-83
2023/08/03 06:57:44;;;;;;;18.10;4.13;;;16.90;99.90;;;;;;4991928;28;20160;-83
2023/08/03 07:00:11;;;;;;;19.60;4.47;;;17.00;99.90;;;;;;4992925;28;20029;-84
2023/08/03 07:02:36;;;;;;;15.75;4.07;;;16.90;99.90;;;;;;4992741;28;20061;-84
2023/08/03 07:05:02;;;;;;;17.55;4.63;;;16.90;99.90;;;;;;4993100;28;20105;-84
2023/08/03 07:07:28;;;;;;;25.02;4.63;;;17.00;99.90;;;;;;4993055;28;20034;-82
2023/08/03 07:09:54;;;;;;;29.15;5.78;;;17.10;99.90;;;;;;4991096;28;20032;-83
2023/08/03 07:12:20;;;;;;;19.67;4.60;;;17.00;99.90;;;;;;4993370;28;20078;-81
2023/08/03 07:14:46;;;;;;;15.90;4.20;;;17.00;99.90;;;;;;4992493;28;20042;-84
2023/08/03 07:17:11;;;;;;;14.90;4.53;;;17.00;99.90;;;;;;4992603;28;20030;-85
2023/08/03 07:19:37;;;;;;;18.02;3.90;;;16.90;99.90;;;;;;4994606;28;20471;-85
2023/08/03 07:22:04;;;;;;;13.80;3.50;;;17.10;99.90;;;;;;4993892;28;20038;-82
2023/08/03 07:24:32;;;;;;;9.68;3.10;;;17.10;99.90;;;;;;4993008;28;20112;-84
2023/08/03 07:27:00;;;;;;;12.52;3.42;;;17.10;99.90;;;;;;4993090;28;20030;-86
2023/08/03 07:29:28;;;;;;;12.88;3.00;;;17.10;99.90;;;;;;4993597;28;20030;-89
2023/08/03 07:31:54;;;;;;;19.13;3.80;;;17.20;99.90;;;;;;4991596;28;20022;-86
2023/08/03 07:34:20;;;;;;;12.55;3.67;;;17.40;99.90;;;;;;4993386;28;20537;-86
2023/08/03 07:36:46;;;;;;;9.38;3.40;;;17.50;99.90;;;;;;4993016;28;20072;-86
2023/08/03 07:39:12;;;;;;;16.80;3.25;;;17.30;99.90;;;;;;4992745;28;20098;-85
2023/08/03 07:41:38;;;;;;;11.40;3.90;;;17.20;99.90;;;;;;4993084;28;20026;-86
2023/08/03 07:44:04;;;;;;;13.38;3.60;;;17.30;99.90;;;;;;4993055;28;20046;-85
2023/08/03 07:46:30;;;;;;;9.35;2.50;;;17.30;99.90;;;;;;4991718;28;20049;-84
2023/08/03 07:48:56;;;;;;;17.13;2.60;;;17.40;99.90;;;;;;4993127;28;20027;-85
2023/08/03 07:51:22;;;;;;;5.55;2.20;;;17.40;99.90;;;;;;4993197;28;20418;-85
2023/08/03 07:53:47;;;;;;;20.23;3.30;;;17.70;99.90;;;;;;5003066;28;20061;-81
2023/08/03 07:56:18;;;;;;;5.68;2.05;;;17.40;99.90;;;;;;5001458;28;20129;-81
2023/08/03 07:58:44;;;;;;;8.43;2.00;;;17.40;99.90;;;;;;4992375;28;20509;-83
2023/08/03 08:01:10;;;;;;;6.32;1.98;;;17.50;99.90;;;;;;4993689;28;20026;-83
2023/08/03 08:03:37;;;;;;;9.65;2.78;;;17.50;99.90;;;;;;4990405;28;20169;-83
2023/08/03 08:06:14;;;;;;;11.25;2.83;;;17.50;99.90;;;;;;4991549;28;20104;-84
2023/08/03 08:08:40;;;;;;;6.53;2.67;;;17.50;99.90;;;;;;4990922;28;20033;-84
2023/08/03 08:11:06;;;;;;;5.60;2.33;;;17.80;99.90;;;;;;4992163;28;20382;-84
2023/08/03 08:13:32;;;;;;;8.63;2.53;;;17.60;99.90;;;;;;4991251;28;20184;-86
2023/08/03 08:16:03;;;;;;;9.57;2.55;;;17.60;99.90;;;;;;4992410;28;20533;-82
2023/08/03 08:18:32;;;;;;;10.55;2.45;;;17.60;99.90;;;;;;4992152;28;20513;-84
2023/08/03 08:21:02;;;;;;;4.88;2.03;;;17.60;99.90;;;;;;4992222;28;20042;-83
2023/08/03 08:23:28;;;;;;;11.38;3.45;;;17.60;99.90;;;;;;4990860;28;20069;-83
2023/08/03 08:25:54;;;;;;;9.70;3.15;;;17.60;99.90;;;;;;4991348;28;20038;-82
2023/08/03 08:28:20;;;;;;;21.27;3.72;;;17.60;99.90;;;;;;4994333;28;20045;-82
2023/08/03 08:30:46;;;;;;;13.98;4.00;;;17.60;99.90;;;;;;4994819;28;20034;-85
2023/08/03 08:33:15;;;;;;;8.50;3.20;;;17.60;99.90;;;;;;4993718;28;20034;-84
2023/08/03 08:35:41;;;;;;;8.35;2.80;;;17.60;99.90;;;;;;4992878;28;20046;-89
2023/08/03 08:38:09;;;;;;;9.10;3.65;;;17.80;99.90;;;;;;4995178;28;20023;-89
2023/08/03 08:40:44;;;;;;;12.77;3.72;;;17.60;99.90;;;;;;4999611;28;20031;-89
2023/08/03 08:43:10;;;;;;;12.48;3.50;;;17.70;99.90;;;;;;4999918;28;20042;-88
2023/08/03 08:45:38;;;;;;;6.72;2.65;;;17.90;99.90;;;;;;4995533;28;20050;-94
2023/08/03 08:48:04;;;;;;;10.18;2.72;;;17.90;99.90;;;;;;4996943;28;20023;-86
2023/08/03 08:50:30;;;;;;;6.47;3.20;;;18.00;99.90;;;;;;4995416;28;20033;-86
2023/08/03 08:52:57;;;;;;;9.45;2.72;;;18.10;99.90;;;;;;4996371;28;20022;-86
2023/08/03 08:55:27;;;;;;;7.18;2.70;;;18.10;99.90;;;;;;4995150;28;20034;-87
2023/08/03 08:57:53;;;;;;;3.50;2.00;;;18.20;99.90;;;;;;4995899;28;20465;-86
2023/08/03 09:00:20;;;;;;;9.82;2.80;;;18.30;99.90;;;;;;4993278;28;20061;-86
2023/08/03 09:02:46;;;;;;;7.20;1.90;;;18.40;99.90;;;;;;4994790;28;20454;-86
2023/08/03 09:05:18;;;;;;;9.18;2.40;;;18.40;99.90;;;;;;4995533;28;20057;-85
2023/08/03 09:07:44;;;;;;;4.25;2.10;;;18.50;99.90;;;;;;4993073;28;20037;-91
2023/08/03 09:10:11;;;;;;;7.40;2.30;;;18.50;99.90;;;;;;4995582;28;20031;-85
2023/08/03 09:12:42;;;;;;;10.60;3.55;;;18.60;99.90;;;;;;4995006;28;20031;-84
2023/08/03 09:15:08;;;;;;;4.50;2.60;;;18.80;99.90;;;;;;4994583;28;20049;-85
2023/08/03 09:17:33;;;;;;;7.15;2.55;;;18.60;99.90;;;;;;4995033;28;20057;-85
2023/08/03 09:19:59;;;;;;;10.50;3.28;;;19.10;99.90;;;;;;4995810;28;20413;-85
2023/08/03 09:22:25;;;;;;;4.53;2.58;;;18.80;99.90;;;;;;4996088;28;20109;-84
2023/08/03 09:25:08;;;;;;;7.22;2.30;;;18.90;99.90;;;;;;4994177;28;20120;-85
2023/08/03 09:27:48;;;;;;;7.43;2.78;;;18.90;99.90;;;;;;4993552;28;20027;-85
2023/08/03 09:30:13;;;;;;;8.05;2.17;;;18.90;99.90;;;;;;4994128;28;20023;-85
2023/08/03 09:32:39;;;;;;;3.40;1.38;;;18.90;99.90;;;;;;4992994;28;20026;-85
2023/08/03 09:35:19;;;;;;;3.78;1.70;;;18.90;99.90;;;;;;4993595;28;20502;-85
2023/08/03 09:37:45;;;;;;;5.47;2.20;;;18.70;99.90;;;;;;4993075;28;20038;-85
2023/08/03 09:40:11;;;;;;;5.13;2.88;;;18.50;99.90;;;;;;4995029;28;20037;-85
2023/08/03 09:42:37;;;;;;;7.72;2.80;;;18.30;99.90;;;;;;4995332;28;20085;-85
2023/08/03 09:45:04;;;;;;;10.85;3.17;;;19.10;99.90;;;;;;4994569;28;20050;-85
2023/08/03 09:47:36;;;;;;;6.45;3.65;;;18.20;99.90;;;;;;4995235;28;20030;-84
2023/08/03 09:50:06;;;;;;;7.75;3.05;;;18.20;99.90;;;;;;4995434;28;20046;-84
2023/08/03 09:52:35;;;;;;;10.98;3.92;;;18.20;99.90;;;;;;4994266;28;20540;-85
2023/08/03 09:55:05;;;;;;;19.27;4.20;;;18.30;99.90;;;;;;4995141;28;20046;-85
2023/08/03 09:57:38;;;;;;;9.73;3.80;;;18.30;99.90;;;;;;4995219;28;20022;-85
2023/08/03 10:00:06;;;;;;;17.38;4.72;;;18.40;99.90;;;;;;4994486;28;20085;-85
2023/08/03 10:02:42;;;;;;;12.95;4.18;;;18.50;99.90;;;;;;4995030;28;20027;-85
2023/08/03 10:05:13;;;;;;;6.70;2.08;;;18.80;99.90;;;;;;4995122;28;20046;-84
2023/08/03 10:07:57;;;;;;;4.55;1.88;;;18.50;99.90;;;;;;4994300;28;20424;-85
2023/08/03 10:10:25;;;;;;;4.07;1.30;;;18.40;99.90;;;;;;4995032;28;20126;-85
2023/08/03 10:12:57;;;;;;;5.80;1.70;;;18.40;99.90;;;;;;4994073;28;20026;-84
2023/08/03 10:15:24;;;;;;;8.80;1.58;;;18.30;99.90;;;;;;4994642;28;20092;-84
2023/08/03 10:17:51;;;;;;;8.15;1.30;;;18.30;99.90;;;;;;4994290;28;20029;-85
2023/08/03 10:20:17;;;;;;;9.07;1.80;;;18.40;99.90;;;;;;4994346;28;20022;-85
2023/08/03 10:23:19;;;;;;;3.13;1.17;;;18.40;99.90;;;;;;4994461;28;20513;-85
2023/08/03 10:25:58;;;;;;;3.78;1.08;;;18.60;99.90;;;;;;4915478;29;20039;-85
2023/08/03 10:28:32;;;;;;;3.35;1.45;;;18.50;99.90;;;;;;4985610;28;20034;-85
2023/08/03 10:31:05;;;;;;;7.93;1.88;;;18.50;99.90;;;;;;4994562;28;20522;-85
2023/08/03 10:33:46;;;;;;;5.70;1.60;;;18.60;99.90;;;;;;4994326;28;20077;-85
2023/08/03 10:36:40;;;;;;;;;;;18.60;99.90;;;;;;4994696;28;20552;-85
2023/08/03 10:39:12;;;;;;;9.20;1.90;;;18.60;99.90;;;;;;4981513;28;19906;-85
2023/08/03 10:41:51;;;;;;;4.75;1.45;;;18.70;99.90;;;;;;4993615;28;20037;-85
2023/08/03 10:44:20;;;;;;;5.30;2.00;;;18.70;99.90;;;;;;4994276;28;20104;-84
2023/08/03 10:46:48;;;;;;;6.10;2.00;;;18.60;99.90;;;;;;4993897;28;20497;-85
2023/08/03 10:49:19;;;;;;;6.10;2.25;;;18.70;99.90;;;;;;4993127;28;20394;-85
2023/08/03 10:51:45;;;;;;;10.82;1.90;;;18.70;99.90;;;;;;5007616;28;20090;-84
2023/08/03 10:54:11;;;;;;;7.47;2.03;;;18.60;99.90;;;;;;5007290;28;20506;-85
2023/08/03 10:56:37;;;;;;;7.07;1.70;;;18.50;99.90;;;;;;4998246;28;20080;-85
2023/08/03 10:59:03;;;;;;;6.47;2.10;;;18.50;99.90;;;;;;4994071;28;20077;-85
2023/08/03 11:01:30;;;;;;;7.00;2.30;;;18.40;99.90;;;;;;4993688;28;20088;-85
2023/08/03 11:03:55;;;;;;;11.27;2.42;;;18.30;99.90;;;;;;4993485;28;20033;-84
2023/08/03 11:06:24;;;;;;;7.10;2.30;;;18.30;99.90;;;;;;4994156;28;20030;-85
2023/08/03 11:08:50;;;;;;;8.25;1.75;;;18.10;99.90;;;;;;4993200;28;20474;-85
2023/08/03 11:11:23;;;;;;;4.47;1.65;;;18.00;99.90;;;;;;4993743;28;20038;-85
2023/08/03 11:13:49;;;;;;;5.85;2.08;;;17.90;99.90;;;;;;4993517;28;20031;-85
2023/08/03 11:16:15;;;;;;;5.00;1.85;;;17.80;99.90;;;;;;4993198;28;20414;-83
2023/08/03 11:18:45;;;;;;;4.57;2.30;;;17.70;99.90;;;;;;4993928;28;20035;-85
2023/08/03 11:21:11;;;;;;;5.93;1.75;;;17.60;99.90;;;;;;4993356;28;20019;-83
2023/08/03 11:23:37;;;;;;;8.50;2.55;;;17.90;99.90;;;;;;4992726;28;20041;-83
2023/08/03 11:26:06;;;;;;;7.65;2.20;;;17.60;99.90;;;;;;4993423;28;20462;-83
2023/08/03 11:28:42;;;;;;;10.43;2.35;;;17.50;99.90;;;;;;4993317;28;20109;-83
2023/08/03 11:31:21;;;;;;;10.15;2.45;;;17.60;99.90;;;;;;4992692;28;20030;-83
2023/08/03 11:33:55;;;;;;;15.55;3.83;;;17.50;99.90;;;;;;4993212;28;20065;-83
2023/08/03 11:36:22;;;;;;;16.80;3.17;;;17.60;99.90;;;;;;4993708;28;20030;-83
2023/08/03 11:38:49;;;;;;;13.18;3.85;;;17.50;99.90;;;;;;4992911;28;20476;-83
2023/08/03 11:41:18;;;;;;;8.98;2.58;;;17.60;99.90;;;;;;4993405;28;20121;-83
2023/08/03 11:43:45;;;;;;;13.80;2.90;;;17.60;99.90;;;;;;4993249;28;20133;-83
2023/08/03 11:46:11;;;;;;;9.30;2.45;;;18.50;99.90;;;;;;4992455;28;20022;-83
2023/08/03 11:48:37;;;;;;;8.90;2.70;;;17.70;99.90;;;;;;4992827;28;20033;-83
2023/08/03 11:51:03;;;;;;;7.68;3.10;;;17.70;99.90;;;;;;4992382;28;20022;-85
2023/08/03 11:53:29;;;;;;;14.15;2.38;;;17.70;99.90;;;;;;4993424;28;20026;-85
2023/08/03 11:55:57;;;;;;;17.02;3.88;;;17.80;99.90;;;;;;4993283;28;20049;-85
2023/08/03 11:58:23;;;;;;;19.58;3.25;;;17.80;99.90;;;;;;4992817;28;20038;-85
2023/08/03 12:00:49;;;;;;;12.43;3.10;;;17.70;99.90;;;;;;4992904;28;20029;-85
2023/08/03 12:03:29;;;;;;;15.32;4.03;;;17.80;99.90;;;;;;4993548;28;20335;-85
2023/08/03 12:05:56;;;;;;;15.65;3.95;;;17.80;99.90;;;;;;4992578;28;20078;-85
2023/08/03 12:08:22;;;;;;;11.90;3.72;;;17.80;99.90;;;;;;4993157;28;20470;-85
2023/08/03 12:11:00;;;;;;;12.50;3.72;;;17.80;99.90;;;;;;4993026;28;20067;-85
2023/08/03 12:13:26;;;;;;;16.48;3.75;;;17.80;99.90;;;;;;4992476;28;20080;-84
2023/08/03 12:15:52;;;;;;;19.83;4.68;;;17.80;99.90;;;;;;4992694;28;20121;-85
2023/08/03 12:18:17;;;;;;;19.27;4.47;;;17.90;99.90;;;;;;4992768;28;20553;-85
2023/08/03 12:20:43;;;;;;;11.75;4.20;;;17.70;99.90;;;;;;4992004;28;20031;-85
2023/08/03 12:23:10;;;;;;;16.05;4.47;;;17.70;99.90;;;;;;4992861;28;20394;-84
2023/08/03 12:25:35;;;;;;;18.13;4.13;;;17.70;99.90;;;;;;4992472;28;20030;-85
2023/08/03 12:28:01;;;;;;;19.13;4.88;;;17.70;99.90;;;;;;4992310;28;20033;-85
2023/08/03 12:30:27;;;;;;;18.38;4.15;;;17.80;99.90;;;;;;4992482;28;20018;-85
2023/08/03 12:32:52;;;;;;;28.38;5.18;;;17.90;99.90;;;;;;4992516;28;20112;-85
2023/08/03 12:35:18;;;;;;;18.73;3.83;;;17.90;99.90;;;;;;4992074;28;20070;-85
2023/08/03 12:37:43;;;;;;;18.27;4.35;;;17.90;99.90;;;;;;4992551;28;20469;-85
2023/08/03 12:40:09;;;;;;;19.77;4.05;;;17.90;99.90;;;;;;4992738;28;20042;-85
2023/08/03 12:42:35;;;;;;;13.18;3.88;;;18.00;99.90;;;;;;4991784;28;20050;-85